Terminal Aerodrome Forecast
Issued by NWS Wilmington, OH

Home | Current Version | Previous Version | Text Only | Print | Product List | Glossary On
Versions: 1 2 3 4 5 6 7 8 9 10 11 12 13 14 15 16 17 18 19 20 21 22 23 24 25 26 27 28 29 30 31 32 33 34 35 36 37 38 39 40
000
FTUS41 KILN 200550
TAFDAY
TAF
KDAY 200550Z 2006/2106 02021G32KT 6SM RA BR OVC008
      TEMPO 2006/2008 3SM RA BR OVC007
     FM201000 02014G30KT 5SM -SHRA BR OVC008
     FM201400 02010G22KT P6SM -SHRA OVC008
     FM201800 35010G18KT P6SM -SHRA OVC008
     FM202100 03006KT P6SM VCSH OVC015
     FM210200 31004KT P6SM OVC025=

USA.gov is the U.S. government's official web portal to all federal, state and local government web resources and services.